sensor_id;sensor_type;location;lat;lon;timestamp;temperature;humidity
53904;DHT22;39812;52.430;16.936;2022-08-21T00:01:11;18.10;99.90
53904;DHT22;39812;52.430;16.936;2022-08-21T00:03:39;18.00;99.90
53904;DHT22;39812;52.430;16.936;2022-08-21T00:06:04;18.00;99.90
53904;DHT22;39812;52.430;16.936;2022-08-21T00:08:30;18.00;99.90
53904;DHT22;39812;52.430;16.936;2022-08-21T00:10:56;17.90;99.90
53904;DHT22;39812;52.430;16.936;2022-08-21T00:13:21;18.00;99.90
53904;DHT22;39812;52.430;16.936;2022-08-21T00:15:48;17.90;99.90
53904;DHT22;39812;52.430;16.936;2022-08-21T00:18:16;17.90;99.90
53904;DHT22;39812;52.430;16.936;2022-08-21T00:20:43;17.90;99.90
53904;DHT22;39812;52.430;16.936;2022-08-21T00:23:09;17.80;99.90
53904;DHT22;39812;52.430;16.936;2022-08-21T00:25:35;17.80;99.90
53904;DHT22;39812;52.430;16.936;2022-08-21T00:28:01;17.80;99.90
53904;DHT22;39812;52.430;16.936;2022-08-21T00:30:27;17.80;99.90
53904;DHT22;39812;52.430;16.936;2022-08-21T00:32:55;17.80;99.90
53904;DHT22;39812;52.430;16.936;2022-08-21T00:35:24;17.80;99.90
53904;DHT22;39812;52.430;16.936;2022-08-21T00:37:50;17.80;99.90
53904;DHT22;39812;52.430;16.936;2022-08-21T00:40:19;17.80;99.90
53904;DHT22;39812;52.430;16.936;2022-08-21T00:42:45;17.80;99.90
53904;DHT22;39812;52.430;16.936;2022-08-21T00:45:11;17.80;99.90
53904;DHT22;39812;52.430;16.936;2022-08-21T00:47:37;17.80;99.90
53904;DHT22;39812;52.430;16.936;2022-08-21T00:50:05;17.80;99.90
53904;DHT22;39812;52.430;16.936;2022-08-21T00:52:34;17.80;99.90
53904;DHT22;39812;52.430;16.936;2022-08-21T00:55:01;17.80;99.90
53904;DHT22;39812;52.430;16.936;2022-08-21T00:57:35;17.90;99.90
53904;DHT22;39812;52.430;16.936;2022-08-21T01:00:05;17.80;99.90
53904;DHT22;39812;52.430;16.936;2022-08-21T01:02:31;17.80;99.90
53904;DHT22;39812;52.430;16.936;2022-08-21T01:04:56;17.80;99.90
53904;DHT22;39812;52.430;16.936;2022-08-21T01:07:22;17.80;99.90
53904;DHT22;39812;52.430;16.936;2022-08-21T01:09:48;17.90;99.90
53904;DHT22;39812;52.430;16.936;2022-08-21T01:12:15;17.80;99.90
53904;DHT22;39812;52.430;16.936;2022-08-21T01:14:41;17.80;99.90
53904;DHT22;39812;52.430;16.936;2022-08-21T01:17:08;17.80;99.90
53904;DHT22;39812;52.430;16.936;2022-08-21T01:19:35;17.80;99.90
53904;DHT22;39812;52.430;16.936;2022-08-21T01:22:00;17.80;99.90
53904;DHT22;39812;52.430;16.936;2022-08-21T01:24:26;17.80;99.90
53904;DHT22;39812;52.430;16.936;2022-08-21T01:26:52;17.80;99.90
53904;DHT22;39812;52.430;16.936;2022-08-21T01:29:32;17.80;99.90
53904;DHT22;39812;52.430;16.936;2022-08-21T01:32:02;17.80;99.90
53904;DHT22;39812;52.430;16.936;2022-08-21T01:34:28;17.80;99.90
53904;DHT22;39812;52.430;16.936;2022-08-21T01:36:53;17.80;99.90
53904;DHT22;39812;52.430;16.936;2022-08-21T01:39:19;17.80;99.90
53904;DHT22;39812;52.430;16.936;2022-08-21T01:41:44;17.80;99.90
53904;DHT22;39812;52.430;16.936;2022-08-21T01:44:10;17.80;99.90
53904;DHT22;39812;52.430;16.936;2022-08-21T01:46:36;17.80;99.90
53904;DHT22;39812;52.430;16.936;2022-08-21T01:49:03;17.80;99.90
53904;DHT22;39812;52.430;16.936;2022-08-21T01:51:28;17.90;99.90
53904;DHT22;39812;52.430;16.936;2022-08-21T01:53:53;17.80;99.90
53904;DHT22;39812;52.430;16.936;2022-08-21T01:56:19;17.80;99.90
53904;DHT22;39812;52.430;16.936;2022-08-21T01:58:46;17.80;99.90
53904;DHT22;39812;52.430;16.936;2022-08-21T02:01:12;17.80;99.90
53904;DHT22;39812;52.430;16.936;2022-08-21T02:03:38;17.80;99.90
53904;DHT22;39812;52.430;16.936;2022-08-21T02:06:05;17.70;99.90
53904;DHT22;39812;52.430;16.936;2022-08-21T02:08:32;17.70;99.90
53904;DHT22;39812;52.430;16.936;2022-08-21T02:10:58;17.60;99.90
53904;DHT22;39812;52.430;16.936;2022-08-21T02:13:24;17.70;99.90
53904;DHT22;39812;52.430;16.936;2022-08-21T02:15:50;17.70;99.90
53904;DHT22;39812;52.430;16.936;2022-08-21T02:18:16;17.70;99.90
53904;DHT22;39812;52.430;16.936;2022-08-21T02:20:45;17.60;99.90
53904;DHT22;39812;52.430;16.936;2022-08-21T02:23:11;17.70;99.90
53904;DHT22;39812;52.430;16.936;2022-08-21T02:25:38;17.60;99.90
53904;DHT22;39812;52.430;16.936;2022-08-21T02:28:11;17.60;99.90
53904;DHT22;39812;52.430;16.936;2022-08-21T02:30:41;17.60;99.90
53904;DHT22;39812;52.430;16.936;2022-08-21T02:33:08;17.50;99.90
53904;DHT22;39812;52.430;16.936;2022-08-21T02:35:35;17.50;99.90
53904;DHT22;39812;52.430;16.936;2022-08-21T02:38:05;17.50;99.90
53904;DHT22;39812;52.430;16.936;2022-08-21T02:40:33;17.40;99.90
53904;DHT22;39812;52.430;16.936;2022-08-21T02:43:01;17.40;99.90
53904;DHT22;39812;52.430;16.936;2022-08-21T02:45:27;17.40;99.90
53904;DHT22;39812;52.430;16.936;2022-08-21T02:47:57;17.40;99.90
53904;DHT22;39812;52.430;16.936;2022-08-21T02:50:29;17.40;99.90
53904;DHT22;39812;52.430;16.936;2022-08-21T02:52:55;17.40;99.90
53904;DHT22;39812;52.430;16.936;2022-08-21T02:55:26;17.30;99.90
53904;DHT22;39812;52.430;16.936;2022-08-21T02:57:53;17.40;99.90
53904;DHT22;39812;52.430;16.936;2022-08-21T03:00:20;17.30;99.90
53904;DHT22;39812;52.430;16.936;2022-08-21T03:02:48;17.40;99.90
53904;DHT22;39812;52.430;16.936;2022-08-21T03:05:14;17.30;99.90
53904;DHT22;39812;52.430;16.936;2022-08-21T03:07:41;17.40;99.90
53904;DHT22;39812;52.430;16.936;2022-08-21T03:10:06;17.30;99.90
53904;DHT22;39812;52.430;16.936;2022-08-21T03:12:33;17.30;99.90
53904;DHT22;39812;52.430;16.936;2022-08-21T03:15:04;17.30;99.90
53904;DHT22;39812;52.430;16.936;2022-08-21T03:17:29;17.30;99.90
53904;DHT22;39812;52.430;16.936;2022-08-21T03:19:55;17.30;99.90
53904;DHT22;39812;52.430;16.936;2022-08-21T03:22:20;17.40;99.90
53904;DHT22;39812;52.430;16.936;2022-08-21T03:24:46;17.30;99.90
53904;DHT22;39812;52.430;16.936;2022-08-21T03:27:11;17.30;99.90
53904;DHT22;39812;52.430;16.936;2022-08-21T03:29:38;17.30;99.90
53904;DHT22;39812;52.430;16.936;2022-08-21T03:32:04;17.30;99.90
53904;DHT22;39812;52.430;16.936;2022-08-21T03:34:30;17.30;99.90
53904;DHT22;39812;52.430;16.936;2022-08-21T03:36:56;17.30;99.90
53904;DHT22;39812;52.430;16.936;2022-08-21T03:39:22;17.30;99.90
53904;DHT22;39812;52.430;16.936;2022-08-21T03:41:47;17.30;99.90
53904;DHT22;39812;52.430;16.936;2022-08-21T03:44:13;17.30;99.90
53904;DHT22;39812;52.430;16.936;2022-08-21T03:46:38;17.20;99.90
53904;DHT22;39812;52.430;16.936;2022-08-21T03:49:05;17.20;99.90
53904;DHT22;39812;52.430;16.936;2022-08-21T03:51:31;17.20;99.90
53904;DHT22;39812;52.430;16.936;2022-08-21T03:53:58;17.30;99.90
53904;DHT22;39812;52.430;16.936;2022-08-21T03:56:24;17.30;99.90
53904;DHT22;39812;52.430;16.936;2022-08-21T03:58:50;17.30;99.90
53904;DHT22;39812;52.430;16.936;2022-08-21T04:01:15;17.20;99.90
53904;DHT22;39812;52.430;16.936;2022-08-21T04:03:41;17.30;99.90
53904;DHT22;39812;52.430;16.936;2022-08-21T04:06:06;17.20;99.90
53904;DHT22;39812;52.430;16.936;2022-08-21T04:08:32;17.20;99.90
53904;DHT22;39812;52.430;16.936;2022-08-21T04:10:58;17.20;99.90
53904;DHT22;39812;52.430;16.936;2022-08-21T04:13:24;17.10;99.90
53904;DHT22;39812;52.430;16.936;2022-08-21T04:15:51;17.10;99.90
53904;DHT22;39812;52.430;16.936;2022-08-21T04:18:17;17.00;99.90
53904;DHT22;39812;52.430;16.936;2022-08-21T04:20:44;17.10;99.90
53904;DHT22;39812;52.430;16.936;2022-08-21T04:23:10;17.00;99.90
53904;DHT22;39812;52.430;16.936;2022-08-21T04:25:36;16.90;99.90
53904;DHT22;39812;52.430;16.936;2022-08-21T04:28:03;16.90;99.90
53904;DHT22;39812;52.430;16.936;2022-08-21T04:30:28;17.00;99.90
53904;DHT22;39812;52.430;16.936;2022-08-21T04:32:55;16.90;99.90
53904;DHT22;39812;52.430;16.936;2022-08-21T04:35:22;16.90;99.90
53904;DHT22;39812;52.430;16.936;2022-08-21T04:37:48;16.90;99.90
53904;DHT22;39812;52.430;16.936;2022-08-21T04:40:16;16.90;99.90
53904;DHT22;39812;52.430;16.936;2022-08-21T04:42:44;16.90;99.90
53904;DHT22;39812;52.430;16.936;2022-08-21T04:45:19;16.90;99.90
53904;DHT22;39812;52.430;16.936;2022-08-21T04:47:49;16.90;99.90
53904;DHT22;39812;52.430;16.936;2022-08-21T04:50:15;17.00;99.90
53904;DHT22;39812;52.430;16.936;2022-08-21T04:52:40;17.00;99.90
53904;DHT22;39812;52.430;16.936;2022-08-21T04:55:06;17.00;99.90
53904;DHT22;39812;52.430;16.936;2022-08-21T04:57:34;17.00;99.90
53904;DHT22;39812;52.430;16.936;2022-08-21T05:00:00;17.10;99.90
53904;DHT22;39812;52.430;16.936;2022-08-21T05:02:26;17.00;99.90
53904;DHT22;39812;52.430;16.936;2022-08-21T05:04:53;17.00;99.90
53904;DHT22;39812;52.430;16.936;2022-08-21T05:07:22;17.00;99.90
53904;DHT22;39812;52.430;16.936;2022-08-21T05:09:50;17.00;99.90
53904;DHT22;39812;52.430;16.936;2022-08-21T05:12:16;17.00;99.90
53904;DHT22;39812;52.430;16.936;2022-08-21T05:14:42;17.00;99.90
53904;DHT22;39812;52.430;16.936;2022-08-21T05:17:08;17.00;99.90
53904;DHT22;39812;52.430;16.936;2022-08-21T05:19:34;17.10;99.90
53904;DHT22;39812;52.430;16.936;2022-08-21T05:21:59;17.10;99.90
53904;DHT22;39812;52.430;16.936;2022-08-21T05:24:26;17.10;99.90
53904;DHT22;39812;52.430;16.936;2022-08-21T05:26:51;17.20;99.90
53904;DHT22;39812;52.430;16.936;2022-08-21T05:29:18;17.20;99.90
53904;DHT22;39812;52.430;16.936;2022-08-21T05:31:44;17.20;99.90
53904;DHT22;39812;52.430;16.936;2022-08-21T05:34:10;17.20;99.90
53904;DHT22;39812;52.430;16.936;2022-08-21T05:36:36;17.20;99.90
53904;DHT22;39812;52.430;16.936;2022-08-21T05:39:03;17.20;99.90
53904;DHT22;39812;52.430;16.936;2022-08-21T05:41:28;17.30;99.90
53904;DHT22;39812;52.430;16.936;2022-08-21T05:43:54;17.30;99.90
53904;DHT22;39812;52.430;16.936;2022-08-21T05:46:19;17.20;99.90
53904;DHT22;39812;52.430;16.936;2022-08-21T05:48:45;17.30;99.90
53904;DHT22;39812;52.430;16.936;2022-08-21T05:51:13;17.30;99.90
53904;DHT22;39812;52.430;16.936;2022-08-21T05:53:40;17.40;99.90
53904;DHT22;39812;52.430;16.936;2022-08-21T05:56:08;17.30;99.90
53904;DHT22;39812;52.430;16.936;2022-08-21T05:58:34;17.30;99.90
53904;DHT22;39812;52.430;16.936;2022-08-21T06:01:01;17.30;99.90
53904;DHT22;39812;52.430;16.936;2022-08-21T06:03:30;17.30;99.90
53904;DHT22;39812;52.430;16.936;2022-08-21T06:05:56;17.30;99.90
53904;DHT22;39812;52.430;16.936;2022-08-21T06:08:22;17.30;99.90
53904;DHT22;39812;52.430;16.936;2022-08-21T06:10:49;17.30;99.90
53904;DHT22;39812;52.430;16.936;2022-08-21T06:13:17;17.30;99.90
53904;DHT22;39812;52.430;16.936;2022-08-21T06:15:43;17.40;99.90
53904;DHT22;39812;52.430;16.936;2022-08-21T06:18:09;17.40;99.90
53904;DHT22;39812;52.430;16.936;2022-08-21T06:20:35;17.40;99.90
53904;DHT22;39812;52.430;16.936;2022-08-21T06:23:00;17.40;99.90
53904;DHT22;39812;52.430;16.936;2022-08-21T06:25:26;17.40;99.90
53904;DHT22;39812;52.430;16.936;2022-08-21T06:27:52;17.50;99.90
53904;DHT22;39812;52.430;16.936;2022-08-21T06:30:17;17.50;99.90
53904;DHT22;39812;52.430;16.936;2022-08-21T06:32:43;17.50;99.90
53904;DHT22;39812;52.430;16.936;2022-08-21T06:35:09;17.40;99.90
53904;DHT22;39812;52.430;16.936;2022-08-21T06:37:35;17.50;99.90
53904;DHT22;39812;52.430;16.936;2022-08-21T06:40:02;17.60;99.90
53904;DHT22;39812;52.430;16.936;2022-08-21T06:42:27;17.50;99.90
53904;DHT22;39812;52.430;16.936;2022-08-21T06:44:53;17.70;99.90
53904;DHT22;39812;52.430;16.936;2022-08-21T06:47:19;17.60;99.90
53904;DHT22;39812;52.430;16.936;2022-08-21T06:49:44;17.50;99.90
53904;DHT22;39812;52.430;16.936;2022-08-21T06:52:12;17.60;99.90
53904;DHT22;39812;52.430;16.936;2022-08-21T06:54:38;17.50;99.90
53904;DHT22;39812;52.430;16.936;2022-08-21T06:57:03;17.30;99.90
53904;DHT22;39812;52.430;16.936;2022-08-21T06:59:29;17.10;99.90
53904;DHT22;39812;52.430;16.936;2022-08-21T07:01:54;17.00;99.90
53904;DHT22;39812;52.430;16.936;2022-08-21T07:04:20;16.80;99.90
53904;DHT22;39812;52.430;16.936;2022-08-21T07:06:46;16.80;99.90
53904;DHT22;39812;52.430;16.936;2022-08-21T07:09:11;16.70;99.90
53904;DHT22;39812;52.430;16.936;2022-08-21T07:11:37;16.60;99.90
53904;DHT22;39812;52.430;16.936;2022-08-21T07:14:03;16.60;99.90
53904;DHT22;39812;52.430;16.936;2022-08-21T07:16:29;16.70;99.90
53904;DHT22;39812;52.430;16.936;2022-08-21T07:18:54;16.70;99.90
53904;DHT22;39812;52.430;16.936;2022-08-21T07:21:20;16.70;99.90
53904;DHT22;39812;52.430;16.936;2022-08-21T07:23:49;16.60;99.90
53904;DHT22;39812;52.430;16.936;2022-08-21T07:26:17;16.70;99.90
53904;DHT22;39812;52.430;16.936;2022-08-21T07:28:44;16.70;99.90
53904;DHT22;39812;52.430;16.936;2022-08-21T07:31:10;16.80;99.90
53904;DHT22;39812;52.430;16.936;2022-08-21T07:33:39;16.80;99.90
53904;DHT22;39812;52.430;16.936;2022-08-21T07:36:04;16.80;99.90
53904;DHT22;39812;52.430;16.936;2022-08-21T07:38:30;16.90;99.90
53904;DHT22;39812;52.430;16.936;2022-08-21T07:40:57;16.80;99.90
53904;DHT22;39812;52.430;16.936;2022-08-21T07:43:24;16.80;99.90
53904;DHT22;39812;52.430;16.936;2022-08-21T07:45:51;16.90;99.90
53904;DHT22;39812;52.430;16.936;2022-08-21T07:48:16;17.00;99.90
53904;DHT22;39812;52.430;16.936;2022-08-21T07:50:43;17.00;99.90
53904;DHT22;39812;52.430;16.936;2022-08-21T07:53:08;17.20;99.90
53904;DHT22;39812;52.430;16.936;2022-08-21T07:55:34;17.10;99.90
53904;DHT22;39812;52.430;16.936;2022-08-21T07:57:59;17.20;99.90
53904;DHT22;39812;52.430;16.936;2022-08-21T08:00:26;17.30;99.90
53904;DHT22;39812;52.430;16.936;2022-08-21T08:02:53;17.30;99.90
53904;DHT22;39812;52.430;16.936;2022-08-21T08:05:22;17.50;99.90
53904;DHT22;39812;52.430;16.936;2022-08-21T08:07:49;17.40;99.90
53904;DHT22;39812;52.430;16.936;2022-08-21T08:10:16;17.60;99.90
53904;DHT22;39812;52.430;16.936;2022-08-21T08:12:42;17.30;99.90
53904;DHT22;39812;52.430;16.936;2022-08-21T08:15:11;17.50;99.90
53904;DHT22;39812;52.430;16.936;2022-08-21T08:17:37;17.70;99.90
53904;DHT22;39812;52.430;16.936;2022-08-21T08:20:05;17.60;99.90
53904;DHT22;39812;52.430;16.936;2022-08-21T08:22:30;17.60;99.90
53904;DHT22;39812;52.430;16.936;2022-08-21T08:24:56;17.40;99.90
53904;DHT22;39812;52.430;16.936;2022-08-21T08:27:22;17.30;99.90
53904;DHT22;39812;52.430;16.936;2022-08-21T08:29:49;17.40;99.90
53904;DHT22;39812;52.430;16.936;2022-08-21T08:32:15;17.40;99.90
53904;DHT22;39812;52.430;16.936;2022-08-21T08:34:40;17.40;99.90
53904;DHT22;39812;52.430;16.936;2022-08-21T08:37:08;17.20;99.90
53904;DHT22;39812;52.430;16.936;2022-08-21T08:39:34;17.20;99.90
53904;DHT22;39812;52.430;16.936;2022-08-21T08:42:06;17.10;99.90
53904;DHT22;39812;52.430;16.936;2022-08-21T08:44:32;17.10;99.90
53904;DHT22;39812;52.430;16.936;2022-08-21T08:46:59;17.00;99.90
53904;DHT22;39812;52.430;16.936;2022-08-21T08:49:31;17.00;99.90
53904;DHT22;39812;52.430;16.936;2022-08-21T08:52:26;17.20;99.90
53904;DHT22;39812;52.430;16.936;2022-08-21T08:55:02;17.20;99.90
53904;DHT22;39812;52.430;16.936;2022-08-21T08:57:28;17.40;99.90
53904;DHT22;39812;52.430;16.936;2022-08-21T08:59:58;17.50;99.90
53904;DHT22;39812;52.430;16.936;2022-08-21T09:02:24;17.50;99.90
53904;DHT22;39812;52.430;16.936;2022-08-21T09:04:53;17.50;99.90
53904;DHT22;39812;52.430;16.936;2022-08-21T09:07:41;17.50;99.90
53904;DHT22;39812;52.430;16.936;2022-08-21T09:10:19;17.60;99.90
53904;DHT22;39812;52.430;16.936;2022-08-21T09:24:02;17.70;99.90
53904;DHT22;39812;52.430;16.936;2022-08-21T09:27:13;17.70;99.90
53904;DHT22;39812;52.430;16.936;2022-08-21T09:29:43;17.80;99.90
53904;DHT22;39812;52.430;16.936;2022-08-21T09:32:17;17.80;99.90
53904;DHT22;39812;52.430;16.936;2022-08-21T09:35:03;17.80;99.90
53904;DHT22;39812;52.430;16.936;2022-08-21T09:37:30;17.70;99.90
53904;DHT22;39812;52.430;16.936;2022-08-21T09:39:58;17.80;99.90
53904;DHT22;39812;52.430;16.936;2022-08-21T09:42:27;17.90;99.90
53904;DHT22;39812;52.430;16.936;2022-08-21T09:45:16;18.00;99.90
53904;DHT22;39812;52.430;16.936;2022-08-21T09:47:43;18.00;99.90
53904;DHT22;39812;52.430;16.936;2022-08-21T09:50:18;18.10;99.90
53904;DHT22;39812;52.430;16.936;2022-08-21T09:52:49;18.10;99.90
53904;DHT22;39812;52.430;16.936;2022-08-21T09:55:21;18.20;99.90
53904;DHT22;39812;52.430;16.936;2022-08-21T09:58:07;18.20;99.90
53904;DHT22;39812;52.430;16.936;2022-08-21T10:00:34;18.30;99.90
53904;DHT22;39812;52.430;16.936;2022-08-21T10:05:38;18.20;99.90
53904;DHT22;39812;52.430;16.936;2022-08-21T10:08:03;18.30;99.90
53904;DHT22;39812;52.430;16.936;2022-08-21T10:10:32;18.30;99.90
53904;DHT22;39812;52.430;16.936;2022-08-21T10:15:51;18.20;99.90
53904;DHT22;39812;52.430;16.936;2022-08-21T10:18:35;18.20;99.90
53904;DHT22;39812;52.430;16.936;2022-08-21T10:27:15;18.00;99.90
53904;DHT22;39812;52.430;16.936;2022-08-21T10:30:04;18.00;99.90
53904;DHT22;39812;52.430;16.936;2022-08-21T10:35:22;18.10;99.90
53904;DHT22;39812;52.430;16.936;2022-08-21T10:37:59;18.20;99.90
53904;DHT22;39812;52.430;16.936;2022-08-21T10:40:49;18.10;99.90
53904;DHT22;39812;52.430;16.936;2022-08-21T10:46:25;18.00;99.90
53904;DHT22;39812;52.430;16.936;2022-08-21T10:51:35;18.30;99.90
53904;DHT22;39812;52.430;16.936;2022-08-21T10:54:16;18.40;99.90
53904;DHT22;39812;52.430;16.936;2022-08-21T10:56:47;18.50;99.90
53904;DHT22;39812;52.430;16.936;2022-08-21T10:59:28;18.60;99.90
53904;DHT22;39812;52.430;16.936;2022-08-21T11:02:25;18.60;99.90
53904;DHT22;39812;52.430;16.936;2022-08-21T11:04:57;18.60;99.90
53904;DHT22;39812;52.430;16.936;2022-08-21T11:07:39;18.70;99.90
53904;DHT22;39812;52.430;16.936;2022-08-21T11:10:18;18.70;99.90
53904;DHT22;39812;52.430;16.936;2022-08-21T11:13:32;18.70;99.90
53904;DHT22;39812;52.430;16.936;2022-08-21T11:16:23;18.80;99.90
53904;DHT22;39812;52.430;16.936;2022-08-21T11:19:00;18.90;99.90
53904;DHT22;39812;52.430;16.936;2022-08-21T11:21:46;19.00;99.90
53904;DHT22;39812;52.430;16.936;2022-08-21T11:24:44;19.10;99.90
53904;DHT22;39812;52.430;16.936;2022-08-21T11:27:24;19.50;99.90
53904;DHT22;39812;52.430;16.936;2022-08-21T11:29:59;19.50;99.90
53904;DHT22;39812;52.430;16.936;2022-08-21T11:35:39;19.40;99.90
53904;DHT22;39812;52.430;16.936;2022-08-21T11:38:23;19.30;99.90
53904;DHT22;39812;52.430;16.936;2022-08-21T11:43:53;19.00;99.90
53904;DHT22;39812;52.430;16.936;2022-08-21T11:52:14;19.00;99.90
53904;DHT22;39812;52.430;16.936;2022-08-21T11:55:04;19.00;99.90
53904;DHT22;39812;52.430;16.936;2022-08-21T12:00:23;19.20;99.90
53904;DHT22;39812;52.430;16.936;2022-08-21T12:02:55;19.20;99.90
53904;DHT22;39812;52.430;16.936;2022-08-21T12:05:39;19.00;99.90
53904;DHT22;39812;52.430;16.936;2022-08-21T12:08:12;19.00;99.90
53904;DHT22;39812;52.430;16.936;2022-08-21T12:10:45;19.00;99.90
53904;DHT22;39812;52.430;16.936;2022-08-21T12:13:29;19.20;99.90
53904;DHT22;39812;52.430;16.936;2022-08-21T12:16:08;19.00;99.90
53904;DHT22;39812;52.430;16.936;2022-08-21T12:18:34;18.90;99.90
53904;DHT22;39812;52.430;16.936;2022-08-21T12:21:16;18.90;99.90
53904;DHT22;39812;52.430;16.936;2022-08-21T12:24:35;18.90;99.90
53904;DHT22;39812;52.430;16.936;2022-08-21T12:26:51;19.00;99.90
53904;DHT22;39812;52.430;16.936;2022-08-21T12:29:23;18.90;99.90
53904;DHT22;39812;52.430;16.936;2022-08-21T12:32:02;18.80;99.90
53904;DHT22;39812;52.430;16.936;2022-08-21T12:34:40;18.80;99.90
53904;DHT22;39812;52.430;16.936;2022-08-21T12:37:20;18.80;99.90
53904;DHT22;39812;52.430;16.936;2022-08-21T12:39:49;18.80;99.90
53904;DHT22;39812;52.430;16.936;2022-08-21T12:42:20;18.80;99.90
53904;DHT22;39812;52.430;16.936;2022-08-21T12:44:53;18.80;99.90
53904;DHT22;39812;52.430;16.936;2022-08-21T12:47:34;18.80;99.90
53904;DHT22;39812;52.430;16.936;2022-08-21T12:50:09;18.80;99.90
53904;DHT22;39812;52.430;16.936;2022-08-21T12:52:41;18.80;99.90
53904;DHT22;39812;52.430;16.936;2022-08-21T12:55:14;18.90;99.90
53904;DHT22;39812;52.430;16.936;2022-08-21T12:57:43;19.00;99.90
53904;DHT22;39812;52.430;16.936;2022-08-21T13:00:12;19.00;99.90
53904;DHT22;39812;52.430;16.936;2022-08-21T13:02:43;18.80;99.90
53904;DHT22;39812;52.430;16.936;2022-08-21T13:05:14;18.90;99.90
53904;DHT22;39812;52.430;16.936;2022-08-21T13:07:46;18.80;99.90
53904;DHT22;39812;52.430;16.936;2022-08-21T13:10:22;18.80;99.90
53904;DHT22;39812;52.430;16.936;2022-08-21T13:12:49;18.90;99.90
53904;DHT22;39812;52.430;16.936;2022-08-21T13:15:24;18.90;99.90
53904;DHT22;39812;52.430;16.936;2022-08-21T13:17:50;18.90;99.90
53904;DHT22;39812;52.430;16.936;2022-08-21T13:20:25;18.80;99.90
53904;DHT22;39812;52.430;16.936;2022-08-21T13:22:52;18.80;99.90
53904;DHT22;39812;52.430;16.936;2022-08-21T13:25:21;18.70;99.90
53904;DHT22;39812;52.430;16.936;2022-08-21T13:28:07;18.60;99.90
53904;DHT22;39812;52.430;16.936;2022-08-21T13:30:44;18.70;99.90
53904;DHT22;39812;52.430;16.936;2022-08-21T13:33:12;18.60;99.90
53904;DHT22;39812;52.430;16.936;2022-08-21T13:36:18;18.50;99.90
53904;DHT22;39812;52.430;16.936;2022-08-21T13:38:44;18.40;99.90
53904;DHT22;39812;52.430;16.936;2022-08-21T13:43:46;18.20;99.90
53904;DHT22;39812;52.430;16.936;2022-08-21T13:46:13;18.10;99.90
53904;DHT22;39812;52.430;16.936;2022-08-21T13:48:41;18.00;99.90
53904;DHT22;39812;52.430;16.936;2022-08-21T13:51:08;18.00;99.90
53904;DHT22;39812;52.430;16.936;2022-08-21T13:53:46;18.00;99.90
53904;DHT22;39812;52.430;16.936;2022-08-21T13:56:41;17.90;99.90
53904;DHT22;39812;52.430;16.936;2022-08-21T13:59:07;18.00;99.90
53904;DHT22;39812;52.430;16.936;2022-08-21T14:01:51;17.80;99.90
53904;DHT22;39812;52.430;16.936;2022-08-21T14:04:23;17.80;99.90
53904;DHT22;39812;52.430;16.936;2022-08-21T14:06:50;17.80;99.90
53904;DHT22;39812;52.430;16.936;2022-08-21T14:09:40;17.80;99.90
53904;DHT22;39812;52.430;16.936;2022-08-21T14:12:19;17.80;99.90
53904;DHT22;39812;52.430;16.936;2022-08-21T14:14:49;17.90;99.90
53904;DHT22;39812;52.430;16.936;2022-08-21T14:17:28;17.90;99.90
53904;DHT22;39812;52.430;16.936;2022-08-21T14:19:54;17.90;99.90
53904;DHT22;39812;52.430;16.936;2022-08-21T14:22:31;17.90;99.90
53904;DHT22;39812;52.430;16.936;2022-08-21T14:27:51;18.10;99.90
53904;DHT22;39812;52.430;16.936;2022-08-21T14:30:21;18.00;99.90
53904;DHT22;39812;52.430;16.936;2022-08-21T14:32:47;18.10;99.90
53904;DHT22;39812;52.430;16.936;2022-08-21T14:35:14;18.10;99.90
53904;DHT22;39812;52.430;16.936;2022-08-21T14:37:42;18.00;99.90
53904;DHT22;39812;52.430;16.936;2022-08-21T14:40:09;17.90;99.90
53904;DHT22;39812;52.430;16.936;2022-08-21T14:42:35;17.90;99.90
53904;DHT22;39812;52.430;16.936;2022-08-21T14:45:10;17.90;99.90
53904;DHT22;39812;52.430;16.936;2022-08-21T14:47:36;17.90;99.90
53904;DHT22;39812;52.430;16.936;2022-08-21T14:50:03;17.80;99.90
53904;DHT22;39812;52.430;16.936;2022-08-21T14:52:28;17.80;99.90
53904;DHT22;39812;52.430;16.936;2022-08-21T14:54:54;17.80;99.90
53904;DHT22;39812;52.430;16.936;2022-08-21T14:57:19;17.80;99.90
53904;DHT22;39812;52.430;16.936;2022-08-21T14:59:45;17.80;99.90
53904;DHT22;39812;52.430;16.936;2022-08-21T15:02:10;17.80;99.90
53904;DHT22;39812;52.430;16.936;2022-08-21T15:04:36;17.80;99.90
53904;DHT22;39812;52.430;16.936;2022-08-21T15:07:02;17.70;99.90
53904;DHT22;39812;52.430;16.936;2022-08-21T15:09:28;17.70;99.90
53904;DHT22;39812;52.430;16.936;2022-08-21T15:11:56;17.60;99.90
53904;DHT22;39812;52.430;16.936;2022-08-21T15:14:26;17.50;99.90
53904;DHT22;39812;52.430;16.936;2022-08-21T15:16:52;17.50;99.90
53904;DHT22;39812;52.430;16.936;2022-08-21T15:19:18;17.40;99.90
53904;DHT22;39812;52.430;16.936;2022-08-21T15:21:44;17.40;99.90
53904;DHT22;39812;52.430;16.936;2022-08-21T15:24:09;17.50;99.90
53904;DHT22;39812;52.430;16.936;2022-08-21T15:26:36;17.60;99.90
53904;DHT22;39812;52.430;16.936;2022-08-21T15:29:02;17.60;99.90
53904;DHT22;39812;52.430;16.936;2022-08-21T15:31:28;17.60;99.90
53904;DHT22;39812;52.430;16.936;2022-08-21T15:33:54;17.50;99.90
53904;DHT22;39812;52.430;16.936;2022-08-21T15:36:20;17.50;99.90
53904;DHT22;39812;52.430;16.936;2022-08-21T15:38:46;17.50;99.90
53904;DHT22;39812;52.430;16.936;2022-08-21T15:41:12;17.50;99.90
53904;DHT22;39812;52.430;16.936;2022-08-21T15:43:50;17.40;99.90
53904;DHT22;39812;52.430;16.936;2022-08-21T15:46:17;17.40;99.90
53904;DHT22;39812;52.430;16.936;2022-08-21T15:48:43;17.40;99.90
53904;DHT22;39812;52.430;16.936;2022-08-21T15:51:12;17.40;99.90
53904;DHT22;39812;52.430;16.936;2022-08-21T15:53:37;17.30;99.90
53904;DHT22;39812;52.430;16.936;2022-08-21T15:56:04;17.20;99.90
53904;DHT22;39812;52.430;16.936;2022-08-21T15:58:30;17.20;99.90
53904;DHT22;39812;52.430;16.936;2022-08-21T16:00:58;17.20;99.90
53904;DHT22;39812;52.430;16.936;2022-08-21T16:03:24;17.20;99.90
53904;DHT22;39812;52.430;16.936;2022-08-21T16:05:51;17.20;99.90
53904;DHT22;39812;52.430;16.936;2022-08-21T16:08:19;17.20;99.90
53904;DHT22;39812;52.430;16.936;2022-08-21T16:10:44;17.10;99.90
53904;DHT22;39812;52.430;16.936;2022-08-21T16:13:20;17.10;99.90
53904;DHT22;39812;52.430;16.936;2022-08-21T16:15:48;17.00;99.90
53904;DHT22;39812;52.430;16.936;2022-08-21T16:18:14;17.00;99.90
53904;DHT22;39812;52.430;16.936;2022-08-21T16:20:39;17.10;99.90